Time;durP1;ratioP1;P1;durP2;ratioP2;P2;SDS_P1;SDS_P2;PMS_P1;PMS_P2;Temp;Humidity;BMP_temperature;BMP_pressure;BME280_temperature;BME280_humidity;BME280_pressure;Samples;Min_cycle;Max_cycle;Signal;HPM_P1;HPM_P2
2022/06/04 00:02:00;;;;;;;14.13;4.05;;;14.20;99.90;;;;;;5036107;28;20028;-74
2022/06/04 00:04:26;;;;;;;18.70;4.97;;;14.20;99.90;;;;;;5028727;28;20033;-74
2022/06/04 00:06:51;;;;;;;12.57;4.00;;;14.20;99.90;;;;;;5036980;28;20040;-74
2022/06/04 00:09:22;;;;;;;17.63;4.13;;;14.20;99.90;;;;;;5028490;28;20091;-74
2022/06/04 00:17:18;;;;;;;11.20;3.90;;;14.20;99.90;;;;;;5024076;28;20060;-73
2022/06/04 00:19:44;;;;;;;17.38;4.43;;;14.20;99.90;;;;;;5027581;28;20037;-74
2022/06/04 00:22:11;;;;;;;18.10;4.35;;;14.20;99.90;;;;;;5038007;28;20049;-74
2022/06/04 00:24:37;;;;;;;13.57;4.68;;;14.20;99.90;;;;;;5039454;28;20075;-74
2022/06/04 00:27:03;;;;;;;14.65;4.53;;;14.20;99.90;;;;;;5026339;28;20037;-74
2022/06/04 00:29:31;;;;;;;24.25;4.95;;;14.20;99.90;;;;;;5035135;28;20408;-74
2022/06/04 00:31:57;;;;;;;15.75;4.35;;;14.30;99.90;;;;;;5041038;28;20025;-73
2022/06/04 00:34:23;;;;;;;19.73;5.35;;;14.20;99.90;;;;;;5022174;28;20109;-73
2022/06/04 00:36:49;;;;;;;15.07;4.65;;;14.30;99.90;;;;;;5024807;28;20541;-74
2022/06/04 00:39:15;;;;;;;16.40;4.22;;;14.30;99.90;;;;;;5032573;28;20108;-74
2022/06/04 00:41:54;;;;;;;19.48;4.10;;;14.30;99.90;;;;;;5020727;28;20202;-74
2022/06/04 00:44:20;;;;;;;15.60;4.60;;;14.30;99.90;;;;;;5029623;28;20370;-74
2022/06/04 00:47:07;;;;;;;21.13;3.65;;;14.20;99.90;;;;;;5025822;28;20048;-74
2022/06/04 00:49:33;;;;;;;14.55;4.05;;;14.30;99.90;;;;;;5017157;28;20073;-74
2022/06/04 00:51:59;;;;;;;19.98;4.28;;;14.30;99.90;;;;;;5022261;28;20056;-73
2022/06/04 00:54:25;;;;;;;15.10;4.55;;;14.30;99.90;;;;;;5010903;28;20056;-74
2022/06/04 00:57:21;;;;;;;21.27;5.18;;;14.30;99.90;;;;;;5006908;28;20483;-73
2022/06/04 01:00:10;;;;;;;14.85;4.45;;;14.30;99.90;;;;;;5020608;28;20136;-74
2022/06/04 01:02:55;;;;;;;13.48;4.80;;;14.30;99.90;;;;;;5030070;28;20298;-74
2022/06/04 01:05:36;;;;;;;17.30;5.18;;;14.30;99.90;;;;;;5022684;28;20090;-73
2022/06/04 01:08:25;;;;;;;23.02;5.40;;;14.40;99.90;;;;;;5024883;28;20029;-74
2022/06/04 01:11:16;;;;;;;21.45;5.47;;;14.40;99.90;;;;;;5024662;28;20307;-73
2022/06/04 01:14:13;;;;;;;21.45;5.28;;;14.30;99.90;;;;;;5030617;28;20055;-73
2022/06/04 01:17:04;;;;;;;20.20;4.90;;;14.40;99.90;;;;;;5022087;28;20049;-74
2022/06/04 01:20:04;;;;;;;17.08;5.22;;;14.40;99.90;;;;;;4993327;28;20045;-74
2022/06/04 01:22:42;;;;;;;14.70;4.28;;;14.30;99.90;;;;;;5027857;28;20096;-73
2022/06/04 01:25:15;;;;;;;20.95;5.35;;;14.30;99.90;;;;;;5018261;28;20096;-74
2022/06/04 01:27:51;;;;;;;19.17;5.20;;;14.40;99.90;;;;;;5038073;28;20029;-74
2022/06/04 01:30:51;;;;;;;19.65;4.88;;;14.30;99.90;;;;;;5016426;28;20056;-73
2022/06/04 01:33:25;;;;;;;14.30;4.25;;;14.30;99.90;;;;;;4974051;28;20435;-74
2022/06/04 01:36:09;;;;;;;12.05;4.47;;;14.40;99.90;;;;;;5026285;28;20089;-74
2022/06/04 01:38:56;;;;;;;19.27;5.28;;;14.30;99.90;;;;;;5023372;28;20063;-74
2022/06/04 01:41:26;;;;;;;16.60;4.28;;;14.40;99.90;;;;;;5025284;28;20306;-73
2022/06/04 01:43:59;;;;;;;22.50;4.88;;;14.30;99.90;;;;;;5035118;28;20068;-74
2022/06/04 01:46:34;;;;;;;18.40;5.03;;;14.30;99.90;;;;;;5003130;28;20037;-73
2022/06/04 01:49:08;;;;;;;18.85;4.68;;;14.30;99.90;;;;;;5022336;28;20054;-74
2022/06/04 01:51:34;;;;;;;18.40;5.18;;;14.40;99.90;;;;;;5019118;28;20029;-73
2022/06/04 01:54:23;;;;;;;22.17;4.85;;;14.40;99.90;;;;;;5032183;28;20372;-74
2022/06/04 01:56:54;;;;;;;16.33;4.10;;;14.30;99.90;;;;;;5033142;28;20042;-74
2022/06/04 01:59:22;;;;;;;20.55;5.53;;;14.40;99.90;;;;;;5018487;28;20068;-74
2022/06/04 02:01:52;;;;;;;29.45;5.68;;;14.40;99.90;;;;;;5027578;28;20534;-74
2022/06/04 02:04:23;;;;;;;18.00;4.35;;;14.40;99.90;;;;;;5029637;28;20025;-73
2022/06/04 02:09:45;;;;;;;18.75;4.45;;;14.30;99.90;;;;;;5032687;28;20044;-74
2022/06/04 02:12:12;;;;;;;19.95;4.85;;;14.30;99.90;;;;;;5005012;28;20037;-73
2022/06/04 02:14:40;;;;;;;20.33;5.38;;;14.30;99.90;;;;;;5026291;28;20473;-73
2022/06/04 02:17:13;;;;;;;21.25;4.60;;;14.30;99.90;;;;;;5012021;28;20052;-73
2022/06/04 02:19:40;;;;;;;19.55;4.80;;;14.20;99.90;;;;;;5023098;28;20032;-72
2022/06/04 02:22:06;;;;;;;20.73;4.88;;;14.20;99.90;;;;;;5014894;28;20052;-72
2022/06/04 02:24:32;;;;;;;20.38;4.63;;;14.20;99.90;;;;;;5016369;28;20041;-74
2022/06/04 02:26:57;;;;;;;18.25;4.78;;;14.10;99.90;;;;;;5024368;28;20071;-72
2022/06/04 02:29:23;;;;;;;20.73;4.75;;;14.10;99.90;;;;;;5036497;28;20466;-72
2022/06/04 02:32:18;;;;;;;20.10;6.13;;;14.10;99.90;;;;;;5025432;28;20036;-72
2022/06/04 02:34:44;;;;;;;17.95;5.10;;;14.10;99.90;;;;;;5023043;28;20041;-73
2022/06/04 02:37:46;;;;;;;17.70;5.20;;;14.10;99.90;;;;;;5016497;28;20029;-72
2022/06/04 02:40:19;;;;;;;15.43;4.65;;;14.10;99.90;;;;;;4980955;28;20040;-72
2022/06/04 02:43:04;;;;;;;16.38;4.72;;;14.10;99.90;;;;;;5037249;28;20036;-72
2022/06/04 02:46:01;;;;;;;15.27;4.78;;;14.10;99.90;;;;;;5004235;28;20060;-73
2022/06/04 02:48:46;;;;;;;17.52;4.30;;;14.10;99.90;;;;;;5030927;28;20210;-72
2022/06/04 02:51:21;;;;;;;20.33;5.32;;;14.20;99.90;;;;;;5034808;28;20413;-72
2022/06/04 02:53:48;;;;;;;16.83;4.80;;;14.10;99.90;;;;;;5029121;28;20094;-72
2022/06/04 02:56:18;;;;;;;14.02;5.97;;;14.20;99.90;;;;;;5028370;28;20500;-72
2022/06/04 02:58:50;;;;;;;20.30;5.47;;;14.20;99.90;;;;;;5016480;28;20061;-72
2022/06/04 03:01:17;;;;;;;26.88;6.90;;;14.20;99.90;;;;;;5033382;28;20044;-73
2022/06/04 03:03:43;;;;;;;16.55;5.65;;;14.10;99.90;;;;;;5032486;28;20092;-72
2022/06/04 03:06:21;;;;;;;15.68;6.20;;;14.10;99.90;;;;;;5011478;28;20462;-72
2022/06/04 03:08:47;;;;;;;15.98;5.40;;;14.20;99.90;;;;;;5029039;28;20059;-72
2022/06/04 03:11:13;;;;;;;13.82;4.78;;;14.20;99.90;;;;;;5035775;28;20441;-72
2022/06/04 03:13:38;;;;;;;16.08;6.22;;;14.20;99.90;;;;;;5029203;28;20094;-73
2022/06/04 03:16:05;;;;;;;14.93;5.82;;;14.10;99.90;;;;;;5036607;28;20590;-72
2022/06/04 03:18:31;;;;;;;17.15;5.97;;;14.20;99.90;;;;;;5032683;28;20041;-72
2022/06/04 03:20:57;;;;;;;15.95;5.57;;;14.20;99.90;;;;;;5037944;28;20289;-72
2022/06/04 03:23:23;;;;;;;20.15;6.07;;;14.30;99.90;;;;;;5023732;28;20021;-72
2022/06/04 03:25:48;;;;;;;16.55;5.97;;;14.20;99.90;;;;;;5039705;28;20569;-72
2022/06/04 03:28:14;;;;;;;16.15;4.80;;;14.30;99.90;;;;;;5028926;28;20061;-72
2022/06/04 03:30:40;;;;;;;18.73;6.20;;;14.30;99.90;;;;;;5023417;28;20045;-73
2022/06/04 03:33:07;;;;;;;20.00;5.72;;;14.30;99.90;;;;;;5032692;28;20598;-72
2022/06/04 03:35:32;;;;;;;15.88;5.93;;;14.30;99.90;;;;;;5032353;28;20041;-72
2022/06/04 03:37:58;;;;;;;15.02;5.25;;;14.20;99.90;;;;;;5027558;28;20025;-73
2022/06/04 03:40:24;;;;;;;18.77;5.75;;;14.20;99.90;;;;;;5017217;28;20029;-72
2022/06/04 03:42:49;;;;;;;22.23;5.10;;;14.30;99.90;;;;;;5032210;28;20545;-72
2022/06/04 03:45:15;;;;;;;17.83;5.60;;;14.30;99.90;;;;;;5032679;28;20036;-72
2022/06/04 03:47:41;;;;;;;15.20;5.70;;;14.30;99.90;;;;;;5040015;28;20025;-72
2022/06/04 03:50:13;;;;;;;19.92;5.97;;;14.20;99.90;;;;;;5022269;28;20124;-72
2022/06/04 03:52:39;;;;;;;15.07;5.75;;;14.20;99.90;;;;;;5019849;28;20062;-71
2022/06/04 03:55:06;;;;;;;16.00;6.53;;;14.20;99.90;;;;;;5023894;28;20120;-72
2022/06/04 03:57:38;;;;;;;18.88;6.05;;;14.00;99.90;;;;;;5026304;28;20038;-71
2022/06/04 04:00:24;;;;;;;19.80;7.50;;;14.00;99.90;;;;;;5017028;28;20121;-72
2022/06/04 04:02:53;;;;;;;22.13;6.38;;;13.90;99.90;;;;;;5015077;28;20067;-72
2022/06/04 04:05:26;;;;;;;17.30;7.20;;;13.90;99.90;;;;;;5022815;28;20060;-72
2022/06/04 04:07:54;;;;;;;23.65;7.32;;;13.80;99.90;;;;;;5026867;28;20534;-71
2022/06/04 04:10:20;;;;;;;20.95;7.53;;;13.80;99.90;;;;;;5041512;28;20045;-72
2022/06/04 04:12:46;;;;;;;23.05;7.63;;;13.80;99.90;;;;;;5029409;28;20082;-71
2022/06/04 04:15:13;;;;;;;25.08;7.70;;;13.80;99.90;;;;;;5021939;28;20025;-73
2022/06/04 04:17:40;;;;;;;19.85;7.60;;;13.80;99.90;;;;;;5032777;28;20517;-71
2022/06/04 04:20:10;;;;;;;20.25;7.50;;;13.80;99.90;;;;;;5035770;28;20386;-72
2022/06/04 04:22:37;;;;;;;18.10;6.85;;;13.80;99.90;;;;;;5036789;28;20204;-72
2022/06/04 04:25:04;;;;;;;;;;;13.80;99.90;;;;;;5029046;28;20164;-72
2022/06/04 04:27:29;;;;;;;20.75;8.10;;;13.70;99.90;;;;;;5036242;28;20065;-72
2022/06/04 04:29:55;;;;;;;19.23;8.30;;;13.70;99.90;;;;;;5021259;28;20500;-72
2022/06/04 04:32:21;;;;;;;26.08;7.55;;;13.70;99.90;;;;;;5025955;28;20061;-73
2022/06/04 04:34:46;;;;;;;22.75;8.00;;;13.70;99.90;;;;;;5023023;28;20037;-72
2022/06/04 04:37:12;;;;;;;27.25;8.30;;;13.70;99.90;;;;;;5024908;28;20555;-73
2022/06/04 04:39:38;;;;;;;21.70;8.73;;;13.70;99.90;;;;;;5023755;28;20520;-72
2022/06/04 04:42:04;;;;;;;19.33;8.02;;;13.70;99.90;;;;;;5035575;28;20029;-72
2022/06/04 04:44:30;;;;;;;23.63;7.57;;;13.80;99.90;;;;;;5015467;28;20163;-72
2022/06/04 04:46:55;;;;;;;23.10;8.43;;;13.80;99.90;;;;;;5035812;28;20045;-72
2022/06/04 04:49:21;;;;;;;24.10;7.65;;;13.80;99.90;;;;;;5024338;28;20041;-72
2022/06/04 04:51:48;;;;;;;27.30;8.40;;;13.80;99.90;;;;;;5037205;28;20070;-72
2022/06/04 04:54:14;;;;;;;21.48;7.80;;;13.80;99.90;;;;;;5026480;28;20029;-71
2022/06/04 04:56:40;;;;;;;19.25;7.22;;;13.80;99.90;;;;;;5027468;28;20033;-71
2022/06/04 04:59:07;;;;;;;14.82;7.18;;;13.80;99.90;;;;;;5019876;28;20029;-72
2022/06/04 05:01:33;;;;;;;24.40;9.90;;;13.80;99.90;;;;;;5021574;28;20037;-71
2022/06/04 05:03:58;;;;;;;22.10;7.60;;;13.80;99.90;;;;;;5024825;28;20184;-71
2022/06/04 05:06:24;;;;;;;20.50;6.90;;;13.80;99.90;;;;;;5030927;28;20104;-71
2022/06/04 05:08:53;;;;;;;25.17;7.63;;;13.80;99.90;;;;;;5032378;28;20068;-71
2022/06/04 05:11:22;;;;;;;19.40;7.03;;;13.80;99.90;;;;;;5016891;28;20684;-70
2022/06/04 05:13:52;;;;;;;25.17;8.57;;;13.80;99.90;;;;;;5028245;28;20090;-71
2022/06/04 05:16:19;;;;;;;20.65;7.53;;;13.80;99.90;;;;;;5018382;28;20036;-72
2022/06/04 05:18:45;;;;;;;21.52;7.70;;;13.80;99.90;;;;;;5018092;28;20037;-71
2022/06/04 05:21:19;;;;;;;18.67;7.68;;;13.80;99.90;;;;;;5020279;28;20075;-71
2022/06/04 05:23:45;;;;;;;19.57;8.17;;;13.70;99.90;;;;;;5016632;28;20037;-71
2022/06/04 05:26:11;;;;;;;24.40;8.33;;;13.70;99.90;;;;;;5016703;28;20371;-69
2022/06/04 05:28:37;;;;;;;20.45;8.00;;;13.60;99.90;;;;;;5021538;28;20544;-71
2022/06/04 05:31:03;;;;;;;23.02;8.07;;;13.60;99.90;;;;;;5023342;28;20081;-71
2022/06/04 05:33:29;;;;;;;22.20;9.48;;;13.60;99.90;;;;;;5026288;28;20519;-69
2022/06/04 05:35:54;;;;;;;23.27;8.38;;;13.50;99.90;;;;;;4998208;28;20037;-68
2022/06/04 05:38:20;;;;;;;25.55;10.05;;;13.50;99.90;;;;;;5018833;28;20044;-68
2022/06/04 05:40:45;;;;;;;25.00;9.07;;;13.50;99.90;;;;;;5029175;28;19913;-68
2022/06/04 05:43:12;;;;;;;27.83;11.15;;;13.40;99.90;;;;;;5023045;28;20033;-69
2022/06/04 05:45:37;;;;;;;25.52;11.45;;;13.30;99.90;;;;;;5029104;28;20036;-68
2022/06/04 05:48:03;;;;;;;21.75;9.90;;;13.30;99.90;;;;;;5021896;28;20033;-67
2022/06/04 05:50:29;;;;;;;43.05;11.60;;;13.30;99.90;;;;;;5025674;28;20213;-67
2022/06/04 05:52:55;;;;;;;;;;;13.20;99.90;;;;;;5019045;28;20060;-68
2022/06/04 05:55:22;;;;;;;26.13;10.65;;;13.20;99.90;;;;;;5021190;28;20143;-68
2022/06/04 05:57:48;;;;;;;32.47;11.27;;;13.20;99.90;;;;;;5031203;28;20410;-68
2022/06/04 06:00:14;;;;;;;31.67;10.13;;;13.20;99.90;;;;;;5023030;28;20440;-68
2022/06/04 06:02:40;;;;;;;28.02;11.50;;;13.20;99.90;;;;;;5012189;28;20032;-67
2022/06/04 06:05:06;;;;;;;31.80;11.80;;;13.20;99.90;;;;;;5021050;28;20037;-67
2022/06/04 06:07:32;;;;;;;32.47;11.15;;;13.20;99.90;;;;;;5030120;28;20976;-68
2022/06/04 06:09:58;;;;;;;30.97;11.07;;;13.20;99.90;;;;;;5025545;28;20041;-68
2022/06/04 06:12:23;;;;;;;34.33;11.25;;;13.20;99.90;;;;;;5026220;28;20038;-68
2022/06/04 06:14:49;;;;;;;29.50;12.30;;;13.10;99.90;;;;;;5020926;28;20489;-68
2022/06/04 06:17:15;;;;;;;27.40;11.85;;;13.10;99.90;;;;;;5021747;28;20136;-69
2022/06/04 06:19:40;;;;;;;40.70;11.88;;;13.20;99.90;;;;;;5015365;28;20274;-68
2022/06/04 06:22:06;;;;;;;29.25;11.60;;;13.10;99.90;;;;;;5012815;28;20049;-68
2022/06/04 06:24:32;;;;;;;33.43;12.27;;;13.20;99.90;;;;;;5017875;28;20038;-68
2022/06/04 06:26:59;;;;;;;31.15;12.35;;;13.20;99.90;;;;;;5003766;28;20493;-68
2022/06/04 06:29:27;;;;;;;30.43;11.63;;;13.20;99.90;;;;;;5020588;28;20074;-67
2022/06/04 06:31:55;;;;;;;19.35;11.20;;;13.30;99.90;;;;;;5019229;28;20124;-68
2022/06/04 06:34:21;;;;;;;38.20;12.30;;;13.40;99.90;;;;;;5021293;28;20030;-69
2022/06/04 06:36:47;;;;;;;25.00;11.60;;;13.40;99.90;;;;;;5010649;28;20030;-68
2022/06/04 06:39:13;;;;;;;30.33;12.15;;;13.50;99.90;;;;;;5016121;28;20030;-68
2022/06/04 06:41:39;;;;;;;21.95;10.48;;;13.50;99.90;;;;;;5021030;28;20044;-68
2022/06/04 06:44:05;;;;;;;27.23;10.35;;;13.50;99.90;;;;;;5015015;28;20517;-68
2022/06/04 06:46:37;;;;;;;29.23;11.60;;;13.60;99.90;;;;;;5009818;28;20352;-68
2022/06/04 06:49:04;;;;;;;;;;;13.50;99.90;;;;;;5018889;28;20654;-68
2022/06/04 06:51:39;;;;;;;22.67;12.00;;;13.40;99.90;;;;;;5033181;28;19913;-68
2022/06/04 06:54:05;;;;;;;25.05;11.40;;;13.50;99.90;;;;;;5030690;28;20029;-68
2022/06/04 06:56:37;;;;;;;23.25;10.13;;;13.40;99.90;;;;;;5036045;28;20553;-68
2022/06/04 06:59:03;;;;;;;;;;;13.40;99.90;;;;;;5038540;28;20025;-68
2022/06/04 07:01:29;;;;;;;27.23;10.27;;;13.50;99.90;;;;;;5031056;28;19958;-68
2022/06/04 07:03:55;;;;;;;21.58;11.75;;;13.50;99.90;;;;;;5029585;28;20252;-68
2022/06/04 07:06:30;;;;;;;33.83;11.77;;;13.60;99.90;;;;;;5008050;28;20115;-68
2022/06/04 07:08:56;;;;;;;25.10;10.30;;;13.60;99.90;;;;;;5031500;28;20040;-67
2022/06/04 07:11:21;;;;;;;34.70;12.70;;;13.50;99.90;;;;;;5032063;28;20698;-68
2022/06/04 07:13:47;;;;;;;27.10;11.50;;;13.50;99.90;;;;;;5024675;28;19995;-68
2022/06/04 07:16:13;;;;;;;32.72;12.00;;;13.50;99.90;;;;;;5025477;28;20551;-68
2022/06/04 07:18:38;;;;;;;;;;;13.50;99.90;;;;;;5029583;28;20025;-68
2022/06/04 07:21:05;;;;;;;21.57;10.07;;;13.50;99.90;;;;;;4674635;28;9999895;-68
2022/06/04 07:23:34;;;;;;;27.77;11.07;;;13.60;99.90;;;;;;5012052;28;20283;-68
2022/06/04 07:26:00;;;;;;;31.25;11.68;;;13.60;99.90;;;;;;5030792;28;20279;-68
2022/06/04 07:28:26;;;;;;;24.98;11.23;;;13.70;99.90;;;;;;5020888;28;20048;-68
2022/06/04 07:30:52;;;;;;;31.90;10.30;;;13.70;99.90;;;;;;5012481;28;20501;-69
2022/06/04 07:33:17;;;;;;;22.00;10.10;;;13.80;99.90;;;;;;5012088;28;20079;-69
2022/06/04 07:35:50;;;;;;;20.77;8.70;;;14.00;99.90;;;;;;5026631;28;20554;-68
2022/06/04 07:38:16;;;;;;;22.77;9.53;;;14.10;99.90;;;;;;4995727;28;20543;-69
2022/06/04 07:40:43;;;;;;;22.88;10.35;;;14.20;99.90;;;;;;5023446;28;20037;-68
2022/06/04 07:43:10;;;;;;;22.90;9.48;;;14.40;99.90;;;;;;5032611;28;20028;-68
2022/06/04 07:45:36;;;;;;;27.75;9.68;;;14.50;99.90;;;;;;5027153;28;20039;-68
2022/06/04 07:48:03;;;;;;;28.90;11.75;;;14.70;99.90;;;;;;5013757;28;20024;-69
2022/06/04 07:50:30;;;;;;;29.17;11.70;;;15.10;99.90;;;;;;5022316;28;20468;-69
2022/06/04 07:52:57;;;;;;;24.23;8.25;;;15.60;99.90;;;;;;5025410;28;20040;-69
2022/06/04 07:55:23;;;;;;;17.50;7.70;;;16.30;99.90;;;;;;5018818;28;20568;-68
2022/06/04 07:57:49;;;;;;;19.70;10.02;;;16.20;99.90;;;;;;5033370;28;20056;-68
2022/06/04 08:00:15;;;;;;;23.33;8.05;;;16.90;99.90;;;;;;5018696;28;20952;-68
2022/06/04 08:02:45;;;;;;;15.50;7.70;;;17.50;99.90;;;;;;5000043;28;20068;-68
2022/06/04 08:05:12;;;;;;;25.58;9.98;;;17.60;99.90;;;;;;5006426;28;20029;-70
2022/06/04 08:07:39;;;;;;;16.05;6.18;;;18.10;99.90;;;;;;5015060;28;20144;-69
2022/06/04 08:10:06;;;;;;;15.75;6.95;;;18.10;99.90;;;;;;5014650;28;20033;-69
2022/06/04 08:12:34;;;;;;;15.60;6.32;;;17.90;99.90;;;;;;5010059;28;20077;-69
2022/06/04 08:15:01;;;;;;;19.13;6.90;;;17.60;99.90;;;;;;5002073;28;20033;-70
2022/06/04 08:17:26;;;;;;;14.88;7.05;;;17.30;99.90;;;;;;4998776;28;20775;-70
2022/06/04 08:19:52;;;;;;;17.85;7.22;;;17.00;99.90;;;;;;4992661;28;20067;-70
2022/06/04 08:22:18;;;;;;;15.82;7.70;;;16.70;99.90;;;;;;4991183;28;21266;-70
2022/06/04 08:24:47;;;;;;;28.88;8.65;;;16.80;99.90;;;;;;4997152;28;20033;-70
2022/06/04 08:27:13;;;;;;;27.10;7.28;;;17.20;99.90;;;;;;5007298;28;20024;-70
2022/06/04 08:29:38;;;;;;;15.82;6.13;;;17.70;99.90;;;;;;5007670;28;20037;-71
2022/06/04 08:32:06;;;;;;;19.77;6.65;;;17.70;99.90;;;;;;5031732;28;20056;-70
2022/06/04 08:34:32;;;;;;;15.20;6.82;;;17.50;99.90;;;;;;5028346;28;20045;-70
2022/06/04 08:36:59;;;;;;;19.75;6.38;;;17.50;99.90;;;;;;4995153;28;20429;-70
2022/06/04 08:39:25;;;;;;;16.67;6.65;;;17.60;99.90;;;;;;5006830;28;20022;-69
2022/06/04 08:42:03;;;;;;;15.20;6.38;;;18.00;99.90;;;;;;5000672;28;20365;-71
2022/06/04 08:44:35;;;;;;;16.67;5.82;;;17.90;99.90;;;;;;5002288;28;20044;-71
2022/06/04 08:47:17;;;;;;;16.60;5.95;;;17.90;99.90;;;;;;5001504;28;20052;-71
2022/06/04 08:49:46;;;;;;;20.30;6.50;;;18.60;99.90;;;;;;4994476;28;20081;-71
2022/06/04 08:52:26;;;;;;;17.45;7.25;;;18.10;99.90;;;;;;4994186;28;19917;-70
2022/06/04 08:57:47;;;;;;;20.45;8.45;;;19.10;99.90;;;;;;4997527;28;20037;-70
2022/06/04 09:00:18;;;;;;;19.00;6.30;;;19.10;99.90;;;;;;5012967;28;20121;-73
2022/06/04 09:03:26;;;;;;;20.83;6.55;;;19.30;99.90;;;;;;5030969;28;20065;-71
2022/06/04 09:06:12;;;;;;;17.70;5.82;;;19.30;99.90;;;;;;4931287;28;20577;-70
2022/06/04 09:08:45;;;;;;;;;;;19.20;99.90;;;;;;4988308;28;20049;-72
2022/06/04 09:11:20;;;;;;;17.00;6.85;;;19.50;99.90;;;;;;4998074;28;25277;-71
2022/06/04 09:14:14;;;;;;;14.10;5.68;;;19.40;99.90;;;;;;4981618;28;20041;-72
2022/06/04 09:16:55;;;;;;;14.98;5.97;;;18.90;99.90;;;;;;5001130;28;20065;-70
2022/06/04 09:19:25;;;;;;;16.08;6.40;;;18.40;99.90;;;;;;4999416;28;20061;-72
2022/06/04 09:21:52;;;;;;;14.43;6.23;;;17.70;99.90;;;;;;5017930;28;20042;-72
2022/06/04 09:24:18;;;;;;;16.17;6.57;;;17.40;99.90;;;;;;4997418;28;20049;-71
2022/06/04 09:27:10;;;;;;;19.25;6.95;;;17.40;99.90;;;;;;5000500;28;20034;-73
2022/06/04 09:30:02;;;;;;;14.68;6.55;;;17.20;99.90;;;;;;5001460;28;20216;-72
2022/06/04 09:32:51;;;;;;;;;;;17.40;99.90;;;;;;4998220;28;20041;-72
2022/06/04 09:35:22;;;;;;;17.50;6.63;;;17.60;99.90;;;;;;4977421;28;19917;-73
2022/06/04 09:37:49;;;;;;;15.07;5.53;;;17.70;99.90;;;;;;5000177;28;20448;-73
2022/06/04 09:40:26;;;;;;;10.57;6.27;;;18.00;99.90;;;;;;4999741;28;20754;-73
2022/06/04 09:43:02;;;;;;;14.77;7.30;;;18.20;99.90;;;;;;4978513;28;20041;-73
2022/06/04 09:45:28;;;;;;;19.98;6.57;;;19.70;99.90;;;;;;4988803;28;20029;-73
2022/06/04 09:47:55;;;;;;;13.93;5.15;;;20.80;99.90;;;;;;4987610;28;20075;-69
2022/06/04 09:50:32;;;;;;;12.23;5.13;;;21.30;99.90;;;;;;5000510;28;20033;-75
2022/06/04 09:53:24;;;;;;;10.95;4.72;;;21.10;99.90;;;;;;5014675;28;20041;-74
2022/06/04 09:55:54;;;;;;;15.18;4.85;;;21.10;99.90;;;;;;4998356;28;20367;-74
2022/06/04 09:58:26;;;;;;;15.63;5.88;;;21.70;98.70;;;;;;4986569;28;20033;-75
2022/06/04 10:01:02;;;;;;;11.88;4.10;;;22.00;99.90;;;;;;5003989;28;20021;-74
2022/06/04 10:03:31;;;;;;;18.98;5.55;;;23.00;94.10;;;;;;5024853;28;20503;-73
2022/06/04 10:06:09;;;;;;;11.48;4.80;;;22.90;98.20;;;;;;5005398;28;20399;-73
2022/06/04 10:11:24;;;;;;;18.30;5.47;;;21.70;99.20;;;;;;5003203;28;21259;-73
2022/06/04 10:13:54;;;;;;;10.13;5.45;;;20.80;99.50;;;;;;4998334;28;20026;-74
2022/06/04 10:16:26;;;;;;;11.65;4.30;;;20.90;99.90;;;;;;5010008;28;20260;-73
2022/06/04 10:19:12;;;;;;;12.82;4.70;;;22.60;96.60;;;;;;5004337;28;20041;-74
2022/06/04 10:21:41;;;;;;;17.23;5.47;;;22.90;98.30;;;;;;5000486;28;20040;-74
2022/06/04 10:24:25;;;;;;;12.90;4.55;;;22.60;94.60;;;;;;5000740;28;20025;-75
2022/06/04 10:27:13;;;;;;;10.80;4.65;;;22.00;96.10;;;;;;5009263;28;20561;-74
2022/06/04 10:30:03;;;;;;;11.68;5.03;;;21.80;96.50;;;;;;5000667;28;20172;-74
2022/06/04 10:32:32;;;;;;;15.15;5.60;;;21.60;98.40;;;;;;5000504;28;20033;-74
2022/06/04 10:35:11;;;;;;;13.20;4.50;;;22.20;98.60;;;;;;5002513;28;20025;-74
2022/06/04 10:37:56;;;;;;;12.75;4.60;;;21.60;97.00;;;;;;5001225;28;20041;-74
2022/06/04 10:40:37;;;;;;;13.90;5.38;;;21.40;99.30;;;;;;5001956;28;20303;-74
2022/06/04 10:43:17;;;;;;;11.07;5.78;;;21.10;96.90;;;;;;5000694;28;20029;-75
2022/06/04 10:46:17;;;;;;;11.30;5.28;;;20.90;99.30;;;;;;4997802;28;20268;-74
2022/06/04 10:49:10;;;;;;;13.15;5.13;;;20.90;99.90;;;;;;4975872;28;20497;-75
2022/06/04 10:51:51;;;;;;;14.95;5.88;;;21.60;99.80;;;;;;5011022;28;20037;-75
2022/06/04 10:54:36;;;;;;;20.45;5.50;;;23.50;99.90;;;;;;5000947;28;20056;-76
2022/06/04 10:57:32;;;;;;;15.77;5.13;;;23.60;91.40;;;;;;4973843;28;20546;-74
2022/06/04 11:00:23;;;;;;;10.43;4.50;;;22.30;92.10;;;;;;4990937;28;20025;-80
2022/06/04 11:03:01;;;;;;;12.32;5.13;;;21.60;95.00;;;;;;4999084;28;20037;-79
2022/06/04 11:05:53;;;;;;;15.80;4.82;;;20.70;99.60;;;;;;5006078;28;20049;-78
2022/06/04 11:08:24;;;;;;;;;;;20.00;99.90;;;;;;5010991;28;20045;-75
2022/06/04 11:11:10;;;;;;;9.23;5.35;;;19.80;99.90;;;;;;5032842;28;20388;-76
2022/06/04 11:13:41;;;;;;;11.40;5.05;;;20.70;99.90;;;;;;5035588;28;20111;-76
2022/06/04 11:16:53;;;;;;;15.55;5.00;;;21.90;96.70;;;;;;5015621;28;20029;-75
2022/06/04 11:19:18;;;;;;;;;;;22.90;93.80;;;;;;5015150;28;20053;-75
2022/06/04 11:21:51;;;;;;;10.52;4.38;;;23.60;92.90;;;;;;5025542;28;19982;-76
2022/06/04 11:24:46;;;;;;;13.60;4.40;;;23.70;89.00;;;;;;5041439;28;20028;-79
2022/06/04 11:27:20;;;;;;;14.73;5.25;;;23.70;95.20;;;;;;5032617;28;20025;-77
2022/06/04 11:29:49;;;;;;;12.55;4.63;;;24.60;98.40;;;;;;5039793;28;20064;-79
2022/06/04 11:32:44;;;;;;;8.77;3.90;;;24.60;91.50;;;;;;5023316;28;20032;-78
2022/06/04 11:35:15;;;;;;;10.15;3.95;;;25.30;87.00;;;;;;5000653;28;20048;-78
2022/06/04 11:38:11;;;;;;;11.00;4.25;;;24.50;90.10;;;;;;5014821;28;20033;-77
2022/06/04 11:40:40;;;;;;;11.82;4.80;;;24.10;90.20;;;;;;5026706;28;20052;-73
2022/06/04 11:43:43;;;;;;;8.88;3.65;;;24.20;95.60;;;;;;5021885;28;20548;-77
2022/06/04 11:46:33;;;;;;;10.80;4.22;;;24.40;90.20;;;;;;5014914;28;20033;-78
2022/06/04 11:49:29;;;;;;;11.43;4.53;;;23.70;88.70;;;;;;5028211;28;20040;-77
2022/06/04 11:51:58;;;;;;;11.20;4.03;;;23.00;94.80;;;;;;5010528;28;20045;-74
2022/06/04 11:54:36;;;;;;;12.63;4.50;;;22.20;91.20;;;;;;5021788;28;20029;-76
2022/06/04 11:57:23;;;;;;;13.45;5.03;;;21.90;93.20;;;;;;5015383;28;20081;-77
2022/06/04 12:00:08;;;;;;;16.88;4.75;;;22.10;94.00;;;;;;4996544;28;20125;-77
2022/06/04 12:02:48;;;;;;;11.48;4.72;;;22.60;96.80;;;;;;5024713;28;20038;-76
2022/06/04 12:05:29;;;;;;;10.82;4.28;;;23.00;93.00;;;;;;5007387;28;20319;-77
2022/06/04 12:07:55;;;;;;;13.37;4.17;;;22.90;95.90;;;;;;5010052;28;20041;-78
2022/06/04 12:10:48;;;;;;;14.10;4.13;;;23.20;91.90;;;;;;5021747;28;20065;-77
2022/06/04 12:13:21;;;;;;;14.15;4.00;;;23.40;96.60;;;;;;5030308;28;20044;-74
2022/06/04 12:16:03;;;;;;;10.43;3.92;;;23.40;85.80;;;;;;5002601;28;20044;-77
2022/06/04 12:18:40;;;;;;;8.73;4.03;;;24.00;99.90;;;;;;5021725;28;20282;-74
2022/06/04 12:24:28;;;;;;;9.00;3.90;;;23.50;85.50;;;;;;5011503;28;20435;-75
2022/06/04 12:27:06;;;;;;;13.85;4.32;;;23.40;95.40;;;;;;5020234;28;20029;-74
2022/06/04 12:29:35;;;;;;;11.48;4.28;;;23.30;91.30;;;;;;5017345;28;20755;-73
2022/06/04 12:32:06;;;;;;;14.40;3.95;;;23.30;96.90;;;;;;5024062;28;20037;-73
2022/06/04 12:34:37;;;;;;;11.52;4.75;;;23.10;91.90;;;;;;5035182;28;20013;-72
2022/06/04 12:37:04;;;;;;;;;;;23.10;90.90;;;;;;5021991;28;20041;-74
2022/06/04 12:39:38;;;;;;;15.57;4.95;;;22.40;94.90;;;;;;5017974;28;20341;-74
2022/06/04 12:42:19;;;;;;;8.90;4.30;;;22.30;96.60;;;;;;5030298;28;20018;-75
2022/06/04 12:45:05;;;;;;;13.55;4.55;;;22.20;93.30;;;;;;5018510;28;20499;-74
2022/06/04 12:47:35;;;;;;;11.63;4.22;;;21.80;92.70;;;;;;5014863;28;20033;-74
2022/06/04 12:50:15;;;;;;;10.93;4.25;;;21.30;95.00;;;;;;5012916;28;20048;-76
2022/06/04 12:53:21;;;;;;;12.07;4.47;;;20.90;96.40;;;;;;5031002;28;20029;-77
2022/06/04 12:55:54;;;;;;;14.02;5.10;;;21.00;98.30;;;;;;4979777;28;20385;-75
2022/06/04 12:58:32;;;;;;;10.52;4.13;;;21.80;97.50;;;;;;5011026;28;20042;-77
2022/06/04 13:01:20;;;;;;;14.30;4.85;;;22.40;96.80;;;;;;5016208;28;20033;-77
2022/06/04 13:04:09;;;;;;;8.68;4.13;;;22.60;96.20;;;;;;5012928;28;20036;-76
2022/06/04 13:06:39;;;;;;;13.98;5.15;;;22.60;93.50;;;;;;4994229;28;20049;-77
2022/06/04 13:09:23;;;;;;;10.52;4.25;;;23.00;92.60;;;;;;5026749;28;20033;-77
2022/06/04 13:12:27;;;;;;;10.73;4.18;;;23.70;95.60;;;;;;5029455;28;20048;-78
2022/06/04 13:15:05;;;;;;;11.68;4.00;;;23.70;93.60;;;;;;5005457;28;20094;-77
2022/06/04 13:17:44;;;;;;;10.63;4.65;;;22.90;90.30;;;;;;5008397;28;20061;-77
2022/06/04 13:20:31;;;;;;;11.52;4.40;;;22.20;96.10;;;;;;5016726;28;20040;-76
2022/06/04 13:23:16;;;;;;;11.00;4.28;;;22.30;94.00;;;;;;5014929;28;20515;-74
2022/06/04 13:26:04;;;;;;;14.07;4.60;;;21.80;93.70;;;;;;5025198;28;20083;-77